sensor_id;sensor_type;location;lat;lon;timestamp;pressure;altitude;pressure_sealevel;temperature;humidity
6393;BME280;3229;42.674;23.282;2023-11-19T00:02:26;94591.97;;;5.19;77.77
6393;BME280;3229;42.674;23.282;2023-11-19T00:04:53;94585.59;;;5.13;77.94
6393;BME280;3229;42.674;23.282;2023-11-19T00:07:20;94583.97;;;5.12;78.10
6393;BME280;3229;42.674;23.282;2023-11-19T00:09:46;94569.75;;;5.22;77.46
6393;BME280;3229;42.674;23.282;2023-11-19T00:12:13;94571.47;;;5.22;77.21
6393;BME280;3229;42.674;23.282;2023-11-19T00:14:40;94573.78;;;5.25;77.29
6393;BME280;3229;42.674;23.282;2023-11-19T00:17:08;94575.63;;;5.23;77.24
6393;BME280;3229;42.674;23.282;2023-11-19T00:19:36;94580.88;;;5.33;77.03
6393;BME280;3229;42.674;23.282;2023-11-19T00:22:03;94583.28;;;5.34;76.95
6393;BME280;3229;42.674;23.282;2023-11-19T00:24:30;94585.94;;;5.33;76.96
6393;BME280;3229;42.674;23.282;2023-11-19T00:26:57;94576.38;;;5.36;76.86
6393;BME280;3229;42.674;23.282;2023-11-19T00:29:24;94577.53;;;5.32;76.78
6393;BME280;3229;42.674;23.282;2023-11-19T00:31:50;94582.47;;;5.34;76.75
6393;BME280;3229;42.674;23.282;2023-11-19T00:34:17;94579.81;;;5.35;76.45
6393;BME280;3229;42.674;23.282;2023-11-19T00:36:49;94588.34;;;5.34;76.57
6393;BME280;3229;42.674;23.282;2023-11-19T00:39:16;94590.88;;;5.34;76.41
6393;BME280;3229;42.674;23.282;2023-11-19T00:41:46;94592.50;;;5.35;76.60
6393;BME280;3229;42.674;23.282;2023-11-19T00:44:12;94591.69;;;5.35;76.74
6393;BME280;3229;42.674;23.282;2023-11-19T00:46:39;94586.75;;;5.33;76.39
6393;BME280;3229;42.674;23.282;2023-11-19T00:49:06;94580.06;;;5.32;76.60
6393;BME280;3229;42.674;23.282;2023-11-19T00:51:33;94583.19;;;5.36;76.69
6393;BME280;3229;42.674;23.282;2023-11-19T00:54:01;94584.00;;;5.36;76.58
6393;BME280;3229;42.674;23.282;2023-11-19T00:56:28;94572.88;;;5.26;76.90
6393;BME280;3229;42.674;23.282;2023-11-19T00:58:54;94587.75;;;5.31;76.75
6393;BME280;3229;42.674;23.282;2023-11-19T01:01:22;94581.59;;;5.22;77.07
6393;BME280;3229;42.674;23.282;2023-11-19T01:03:49;94578.97;;;5.23;76.92
6393;BME280;3229;42.674;23.282;2023-11-19T01:06:26;94585.47;;;5.27;76.79
6393;BME280;3229;42.674;23.282;2023-11-19T01:08:53;94589.22;;;5.22;77.10
6393;BME280;3229;42.674;23.282;2023-11-19T01:11:23;94594.72;;;5.16;77.38
6393;BME280;3229;42.674;23.282;2023-11-19T01:13:51;94595.91;;;5.23;76.96
6393;BME280;3229;42.674;23.282;2023-11-19T01:16:18;94597.06;;;5.19;77.37
6393;BME280;3229;42.674;23.282;2023-11-19T01:18:47;94597.31;;;5.27;76.84
6393;BME280;3229;42.674;23.282;2023-11-19T01:21:13;94589.94;;;5.24;76.93
6393;BME280;3229;42.674;23.282;2023-11-19T01:23:41;94591.97;;;5.19;77.17
6393;BME280;3229;42.674;23.282;2023-11-19T01:26:08;94594.84;;;5.14;77.41
6393;BME280;3229;42.674;23.282;2023-11-19T01:28:39;94598.28;;;5.13;77.47
6393;BME280;3229;42.674;23.282;2023-11-19T01:31:10;94607.28;;;5.17;77.31
6393;BME280;3229;42.674;23.282;2023-11-19T01:33:38;94597.25;;;5.16;76.70
6393;BME280;3229;42.674;23.282;2023-11-19T01:36:05;94611.75;;;5.14;76.69
6393;BME280;3229;42.674;23.282;2023-11-19T01:38:33;94608.97;;;5.06;77.06
6393;BME280;3229;42.674;23.282;2023-11-19T01:41:00;94613.19;;;5.05;77.08
6393;BME280;3229;42.674;23.282;2023-11-19T01:43:32;94611.38;;;5.07;76.93
6393;BME280;3229;42.674;23.282;2023-11-19T01:46:01;94613.63;;;4.99;76.72
6393;BME280;3229;42.674;23.282;2023-11-19T01:48:28;94623.66;;;5.00;76.78
6393;BME280;3229;42.674;23.282;2023-11-19T01:50:55;94615.16;;;5.01;76.82
6393;BME280;3229;42.674;23.282;2023-11-19T01:53:22;94604.50;;;4.96;76.94
6393;BME280;3229;42.674;23.282;2023-11-19T01:55:50;94617.50;;;4.92;76.93
6393;BME280;3229;42.674;23.282;2023-11-19T01:58:18;94601.44;;;4.80;76.72
6393;BME280;3229;42.674;23.282;2023-11-19T02:00:45;94623.47;;;4.91;76.82
6393;BME280;3229;42.674;23.282;2023-11-19T02:03:14;94626.81;;;4.91;76.83
6393;BME280;3229;42.674;23.282;2023-11-19T02:05:41;94625.94;;;4.92;76.71
6393;BME280;3229;42.674;23.282;2023-11-19T02:08:09;94614.06;;;4.93;76.49
6393;BME280;3229;42.674;23.282;2023-11-19T02:10:35;94620.63;;;4.95;76.28
6393;BME280;3229;42.674;23.282;2023-11-19T02:13:02;94611.53;;;4.93;75.95
6393;BME280;3229;42.674;23.282;2023-11-19T02:15:31;94604.94;;;4.90;75.83
6393;BME280;3229;42.674;23.282;2023-11-19T02:18:21;94618.59;;;5.00;75.61
6393;BME280;3229;42.674;23.282;2023-11-19T02:20:48;94607.16;;;4.95;75.92
6393;BME280;3229;42.674;23.282;2023-11-19T02:23:16;94605.06;;;4.89;76.12
6393;BME280;3229;42.674;23.282;2023-11-19T02:25:47;94608.19;;;4.92;75.86
6393;BME280;3229;42.674;23.282;2023-11-19T02:28:19;94604.25;;;4.88;75.87
6393;BME280;3229;42.674;23.282;2023-11-19T02:30:46;94496.63;;;4.20;75.46
6393;BME280;3229;42.674;23.282;2023-11-19T02:33:13;94402.31;;;3.56;75.91
6393;BME280;3229;42.674;23.282;2023-11-19T02:35:40;94580.06;;;4.71;76.25
6393;BME280;3229;42.674;23.282;2023-11-19T02:38:07;94588.47;;;4.72;76.62
6393;BME280;3229;42.674;23.282;2023-11-19T02:40:34;94590.41;;;4.68;76.73
6393;BME280;3229;42.674;23.282;2023-11-19T02:43:01;94604.19;;;4.64;76.73
6393;BME280;3229;42.674;23.282;2023-11-19T02:45:31;94600.13;;;4.62;76.91
6393;BME280;3229;42.674;23.282;2023-11-19T02:47:58;94603.91;;;4.56;77.27
6393;BME280;3229;42.674;23.282;2023-11-19T02:50:27;94610.06;;;4.52;77.28
6393;BME280;3229;42.674;23.282;2023-11-19T02:52:55;94591.66;;;4.37;77.51
6393;BME280;3229;42.674;23.282;2023-11-19T02:55:23;94608.97;;;4.43;77.42
6393;BME280;3229;42.674;23.282;2023-11-19T02:57:50;94598.66;;;4.46;77.19
6393;BME280;3229;42.674;23.282;2023-11-19T03:00:20;94590.16;;;4.35;77.29
6393;BME280;3229;42.674;23.282;2023-11-19T03:02:50;94596.75;;;4.37;77.51
6393;BME280;3229;42.674;23.282;2023-11-19T03:05:25;94597.94;;;4.32;77.66
6393;BME280;3229;42.674;23.282;2023-11-19T03:07:55;94613.34;;;4.41;77.28
6393;BME280;3229;42.674;23.282;2023-11-19T03:10:22;94616.25;;;4.35;77.58
6393;BME280;3229;42.674;23.282;2023-11-19T03:12:49;94590.75;;;4.13;77.81
6393;BME280;3229;42.674;23.282;2023-11-19T03:15:16;94625.50;;;4.36;77.46
6393;BME280;3229;42.674;23.282;2023-11-19T03:17:43;94624.78;;;4.34;77.84
6393;BME280;3229;42.674;23.282;2023-11-19T03:20:11;94609.28;;;4.26;77.99
6393;BME280;3229;42.674;23.282;2023-11-19T03:22:41;94626.63;;;4.32;78.34
6393;BME280;3229;42.674;23.282;2023-11-19T03:25:09;94622.25;;;4.34;78.31
6393;BME280;3229;42.674;23.282;2023-11-19T03:27:36;94604.94;;;4.28;78.18
6393;BME280;3229;42.674;23.282;2023-11-19T03:30:05;94622.97;;;4.36;78.57
6393;BME280;3229;42.674;23.282;2023-11-19T03:32:32;94582.56;;;4.09;78.33
6393;BME280;3229;42.674;23.282;2023-11-19T03:35:00;94615.16;;;4.39;77.77
6393;BME280;3229;42.674;23.282;2023-11-19T03:37:28;94618.72;;;4.37;77.72
6393;BME280;3229;42.674;23.282;2023-11-19T03:39:55;94622.13;;;4.36;77.89
6393;BME280;3229;42.674;23.282;2023-11-19T03:42:25;94629.72;;;4.36;77.94
6393;BME280;3229;42.674;23.282;2023-11-19T03:44:52;94628.91;;;4.35;78.11
6393;BME280;3229;42.674;23.282;2023-11-19T03:47:18;94637.63;;;4.44;77.76
6393;BME280;3229;42.674;23.282;2023-11-19T03:49:47;94648.47;;;4.46;77.31
6393;BME280;3229;42.674;23.282;2023-11-19T03:52:14;94628.91;;;4.35;77.25
6393;BME280;3229;42.674;23.282;2023-11-19T03:54:42;94644.72;;;4.39;77.57
6393;BME280;3229;42.674;23.282;2023-11-19T03:57:09;94638.75;;;4.40;78.05
6393;BME280;3229;42.674;23.282;2023-11-19T03:59:37;94636.75;;;4.45;77.87
6393;BME280;3229;42.674;23.282;2023-11-19T04:02:04;94648.97;;;4.51;77.69
6393;BME280;3229;42.674;23.282;2023-11-19T04:04:31;94648.97;;;4.51;77.04
6393;BME280;3229;42.674;23.282;2023-11-19T04:06:58;94656.69;;;4.49;77.36
6393;BME280;3229;42.674;23.282;2023-11-19T04:09:26;94659.53;;;4.45;77.72
6393;BME280;3229;42.674;23.282;2023-11-19T04:11:54;94666.19;;;4.46;77.96
6393;BME280;3229;42.674;23.282;2023-11-19T04:14:21;94675.00;;;4.53;77.47
6393;BME280;3229;42.674;23.282;2023-11-19T04:16:48;94673.56;;;4.62;76.66
6393;BME280;3229;42.674;23.282;2023-11-19T04:19:14;94673.50;;;4.63;76.38
6393;BME280;3229;42.674;23.282;2023-11-19T04:21:41;94685.13;;;4.66;76.50
6393;BME280;3229;42.674;23.282;2023-11-19T04:24:09;94684.53;;;4.62;77.11
6393;BME280;3229;42.674;23.282;2023-11-19T04:26:40;94675.00;;;4.66;76.67
6393;BME280;3229;42.674;23.282;2023-11-19T04:29:08;94679.25;;;4.65;76.45
6393;BME280;3229;42.674;23.282;2023-11-19T04:31:36;94678.25;;;4.68;76.26
6393;BME280;3229;42.674;23.282;2023-11-19T04:34:03;94671.13;;;4.73;75.79
6393;BME280;3229;42.674;23.282;2023-11-19T04:36:30;94676.09;;;4.74;75.43
6393;BME280;3229;42.674;23.282;2023-11-19T04:38:57;94688.44;;;4.79;75.74
6393;BME280;3229;42.674;23.282;2023-11-19T04:41:24;94684.53;;;4.75;76.11
6393;BME280;3229;42.674;23.282;2023-11-19T04:43:52;94687.44;;;4.82;75.96
6393;BME280;3229;42.674;23.282;2023-11-19T04:46:21;94665.38;;;4.71;75.54
6393;BME280;3229;42.674;23.282;2023-11-19T04:48:49;94685.03;;;4.80;75.52
6393;BME280;3229;42.674;23.282;2023-11-19T04:51:15;94685.91;;;4.79;75.60
6393;BME280;3229;42.674;23.282;2023-11-19T04:53:42;94690.09;;;4.80;75.67
6393;BME280;3229;42.674;23.282;2023-11-19T04:56:10;94686.53;;;4.83;75.65
6393;BME280;3229;42.674;23.282;2023-11-19T04:58:37;94544.00;;;3.93;75.69
6393;BME280;3229;42.674;23.282;2023-11-19T05:01:04;94698.88;;;4.87;75.59
6393;BME280;3229;42.674;23.282;2023-11-19T05:03:32;94698.88;;;4.87;75.24
6393;BME280;3229;42.674;23.282;2023-11-19T05:05:59;94704.16;;;4.97;74.49
6393;BME280;3229;42.674;23.282;2023-11-19T05:08:26;94715.81;;;4.99;74.34
6393;BME280;3229;42.674;23.282;2023-11-19T05:10:53;94719.69;;;4.92;74.56
6393;BME280;3229;42.674;23.282;2023-11-19T05:13:20;94713.19;;;4.88;74.52
6393;BME280;3229;42.674;23.282;2023-11-19T05:15:47;94705.97;;;4.95;74.60
6393;BME280;3229;42.674;23.282;2023-11-19T05:18:14;94715.00;;;4.99;74.19
6393;BME280;3229;42.674;23.282;2023-11-19T05:20:42;94716.00;;;4.96;74.47
6393;BME280;3229;42.674;23.282;2023-11-19T05:23:09;94714.38;;;4.95;74.69
6393;BME280;3229;42.674;23.282;2023-11-19T05:25:36;94712.94;;;5.04;74.29
6393;BME280;3229;42.674;23.282;2023-11-19T05:28:03;94711.22;;;5.04;73.99
6393;BME280;3229;42.674;23.282;2023-11-19T05:30:30;94696.75;;;4.94;74.23
6393;BME280;3229;42.674;23.282;2023-11-19T05:32:57;94701.22;;;4.90;74.14
6393;BME280;3229;42.674;23.282;2023-11-19T05:35:24;94715.09;;;4.97;74.06
6393;BME280;3229;42.674;23.282;2023-11-19T05:37:52;94708.13;;;5.01;74.11
6393;BME280;3229;42.674;23.282;2023-11-19T05:40:19;94711.66;;;4.98;73.70
6393;BME280;3229;42.674;23.282;2023-11-19T05:42:46;94710.72;;;4.99;73.51
6393;BME280;3229;42.674;23.282;2023-11-19T05:45:13;94712.88;;;4.93;73.46
6393;BME280;3229;42.674;23.282;2023-11-19T05:47:41;94731.81;;;4.87;74.09
6393;BME280;3229;42.674;23.282;2023-11-19T05:50:09;94651.31;;;4.41;74.45
6393;BME280;3229;42.674;23.282;2023-11-19T05:52:36;94722.72;;;4.85;74.76
6393;BME280;3229;42.674;23.282;2023-11-19T05:55:04;94727.56;;;4.88;74.65
6393;BME280;3229;42.674;23.282;2023-11-19T05:57:34;94727.97;;;4.94;74.38
6393;BME280;3229;42.674;23.282;2023-11-19T06:00:01;94734.78;;;4.94;74.32
6393;BME280;3229;42.674;23.282;2023-11-19T06:02:32;94729.91;;;4.91;74.73
6393;BME280;3229;42.674;23.282;2023-11-19T06:04:59;94737.41;;;4.92;74.83
6393;BME280;3229;42.674;23.282;2023-11-19T06:07:26;94746.53;;;4.95;74.45
6393;BME280;3229;42.674;23.282;2023-11-19T06:09:52;94754.22;;;4.93;74.74
6393;BME280;3229;42.674;23.282;2023-11-19T06:12:20;94749.06;;;4.95;74.94
6393;BME280;3229;42.674;23.282;2023-11-19T06:14:47;94747.13;;;4.98;74.85
6393;BME280;3229;42.674;23.282;2023-11-19T06:17:14;94739.53;;;4.98;74.30
6393;BME280;3229;42.674;23.282;2023-11-19T06:19:41;94742.56;;;4.91;74.48
6393;BME280;3229;42.674;23.282;2023-11-19T06:22:07;94744.72;;;4.97;74.57
6393;BME280;3229;42.674;23.282;2023-11-19T06:24:34;94747.25;;;4.97;74.61
6393;BME280;3229;42.674;23.282;2023-11-19T06:27:01;94741.25;;;4.98;74.29
6393;BME280;3229;42.674;23.282;2023-11-19T06:29:29;94752.69;;;5.03;74.05
6393;BME280;3229;42.674;23.282;2023-11-19T06:31:56;94755.44;;;5.00;74.42
6393;BME280;3229;42.674;23.282;2023-11-19T06:34:23;94745.91;;;5.04;74.44
6393;BME280;3229;42.674;23.282;2023-11-19T06:36:50;94737.38;;;5.05;74.17
6393;BME280;3229;42.674;23.282;2023-11-19T06:39:16;94750.66;;;5.09;74.20
6393;BME280;3229;42.674;23.282;2023-11-19T06:41:47;94765.66;;;5.12;73.25
6393;BME280;3229;42.674;23.282;2023-11-19T06:44:14;94757.56;;;5.07;73.91
6393;BME280;3229;42.674;23.282;2023-11-19T06:46:42;94753.50;;;5.04;73.61
6393;BME280;3229;42.674;23.282;2023-11-19T06:49:09;94766.09;;;5.06;73.41
6393;BME280;3229;42.674;23.282;2023-11-19T06:51:41;94752.81;;;5.02;73.74
6393;BME280;3229;42.674;23.282;2023-11-19T06:54:08;94751.88;;;5.03;73.01
6393;BME280;3229;42.674;23.282;2023-11-19T06:56:35;94706.50;;;4.74;73.08
6393;BME280;3229;42.674;23.282;2023-11-19T06:59:02;94746.00;;;5.02;73.27
6393;BME280;3229;42.674;23.282;2023-11-19T07:01:34;94750.28;;;5.02;73.42
6393;BME280;3229;42.674;23.282;2023-11-19T07:04:02;94750.88;;;5.06;73.28
6393;BME280;3229;42.674;23.282;2023-11-19T07:06:35;94756.66;;;5.08;73.33
6393;BME280;3229;42.674;23.282;2023-11-19T07:09:02;94761.59;;;5.09;72.70
6393;BME280;3229;42.674;23.282;2023-11-19T07:11:35;94744.91;;;4.94;72.31
6393;BME280;3229;42.674;23.282;2023-11-19T07:14:03;94763.44;;;5.07;72.52
6393;BME280;3229;42.674;23.282;2023-11-19T07:16:29;94758.06;;;4.99;73.38
6393;BME280;3229;42.674;23.282;2023-11-19T07:18:56;94756.66;;;5.08;71.54
6393;BME280;3229;42.674;23.282;2023-11-19T07:21:25;94755.34;;;5.02;72.16
6393;BME280;3229;42.674;23.282;2023-11-19T07:23:53;94761.91;;;5.04;71.83
6393;BME280;3229;42.674;23.282;2023-11-19T07:26:20;94766.47;;;4.99;72.18
6393;BME280;3229;42.674;23.282;2023-11-19T07:28:47;94765.56;;;5.00;72.58
6393;BME280;3229;42.674;23.282;2023-11-19T07:31:15;94768.00;;;5.02;72.81
6393;BME280;3229;42.674;23.282;2023-11-19T07:33:43;94785.53;;;5.05;72.52
6393;BME280;3229;42.674;23.282;2023-11-19T07:36:11;94772.47;;;4.98;71.79
6393;BME280;3229;42.674;23.282;2023-11-19T07:38:39;94783.59;;;5.09;71.42
6393;BME280;3229;42.674;23.282;2023-11-19T07:41:06;94794.16;;;5.02;71.96
6393;BME280;3229;42.674;23.282;2023-11-19T07:43:35;94791.75;;;5.01;72.06
6393;BME280;3229;42.674;23.282;2023-11-19T07:46:02;94803.50;;;5.02;72.16
6393;BME280;3229;42.674;23.282;2023-11-19T07:48:29;94787.25;;;5.04;71.93
6393;BME280;3229;42.674;23.282;2023-11-19T07:50:57;94792.94;;;5.21;72.99
6393;BME280;3229;42.674;23.282;2023-11-19T07:53:23;94795.28;;;5.24;72.29
6393;BME280;3229;42.674;23.282;2023-11-19T07:55:52;94804.50;;;5.25;71.24
6393;BME280;3229;42.674;23.282;2023-11-19T07:58:18;94806.34;;;5.23;71.20
6393;BME280;3229;42.674;23.282;2023-11-19T08:00:45;94798.13;;;5.19;71.04
6393;BME280;3229;42.674;23.282;2023-11-19T08:03:12;94792.72;;;5.24;70.69
6393;BME280;3229;42.674;23.282;2023-11-19T08:05:39;94810.28;;;5.27;70.61
6393;BME280;3229;42.674;23.282;2023-11-19T08:08:06;94816.53;;;5.34;69.87
6393;BME280;3229;42.674;23.282;2023-11-19T08:10:33;94803.78;;;5.23;71.11
6393;BME280;3229;42.674;23.282;2023-11-19T08:13:01;94817.66;;;5.30;71.06
6393;BME280;3229;42.674;23.282;2023-11-19T08:15:28;94815.44;;;5.38;70.36
6393;BME280;3229;42.674;23.282;2023-11-19T08:17:54;94818.28;;;5.34;70.57
6393;BME280;3229;42.674;23.282;2023-11-19T08:20:21;94815.84;;;5.32;70.72
6393;BME280;3229;42.674;23.282;2023-11-19T08:22:48;94817.34;;;5.35;70.81
6393;BME280;3229;42.674;23.282;2023-11-19T08:25:16;94821.22;;;5.40;70.64
6393;BME280;3229;42.674;23.282;2023-11-19T08:27:43;94828.28;;;5.48;70.63
6393;BME280;3229;42.674;23.282;2023-11-19T08:30:12;94835.31;;;5.57;70.38
6393;BME280;3229;42.674;23.282;2023-11-19T08:32:39;94828.19;;;5.62;69.07
6393;BME280;3229;42.674;23.282;2023-11-19T08:35:06;94821.47;;;5.61;68.68
6393;BME280;3229;42.674;23.282;2023-11-19T08:37:33;94834.47;;;5.57;69.41
6393;BME280;3229;42.674;23.282;2023-11-19T08:40:02;94825.97;;;5.58;69.41
6393;BME280;3229;42.674;23.282;2023-11-19T08:42:29;94839.22;;;5.61;69.57
6393;BME280;3229;42.674;23.282;2023-11-19T08:44:56;94834.06;;;5.63;69.17
6393;BME280;3229;42.674;23.282;2023-11-19T08:47:24;94824.31;;;5.69;68.65
6393;BME280;3229;42.674;23.282;2023-11-19T08:49:51;94828.16;;;5.75;67.43
6393;BME280;3229;42.674;23.282;2023-11-19T08:52:19;94832.13;;;5.66;68.03
6393;BME280;3229;42.674;23.282;2023-11-19T08:54:46;94838.22;;;5.64;67.84
6393;BME280;3229;42.674;23.282;2023-11-19T08:57:12;94840.97;;;5.61;68.19
6393;BME280;3229;42.674;23.282;2023-11-19T08:59:39;94849.59;;;5.58;68.00
6393;BME280;3229;42.674;23.282;2023-11-19T09:02:06;94844.09;;;5.64;67.93
6393;BME280;3229;42.674;23.282;2023-11-19T09:04:34;94823.72;;;5.66;68.00
6393;BME280;3229;42.674;23.282;2023-11-19T09:07:01;94819.47;;;5.66;68.23
6393;BME280;3229;42.674;23.282;2023-11-19T09:09:28;94818.72;;;5.64;68.13
6393;BME280;3229;42.674;23.282;2023-11-19T09:11:55;94823.28;;;5.72;67.50
6393;BME280;3229;42.674;23.282;2023-11-19T09:14:22;94822.16;;;5.76;67.90
6393;BME280;3229;42.674;23.282;2023-11-19T09:16:51;94810.44;;;5.86;68.00
6393;BME280;3229;42.674;23.282;2023-11-19T09:19:18;94818.50;;;5.93;67.62
6393;BME280;3229;42.674;23.282;2023-11-19T09:21:46;94820.41;;;6.02;67.79
6393;BME280;3229;42.674;23.282;2023-11-19T09:24:14;94816.00;;;6.04;66.80
6393;BME280;3229;42.674;23.282;2023-11-19T09:26:41;94817.84;;;6.02;66.64
6393;BME280;3229;42.674;23.282;2023-11-19T09:29:08;94818.66;;;6.02;66.46
6393;BME280;3229;42.674;23.282;2023-11-19T09:31:37;94839.94;;;6.13;65.42
6393;BME280;3229;42.674;23.282;2023-11-19T09:34:04;94835.09;;;6.10;65.93
6393;BME280;3229;42.674;23.282;2023-11-19T09:36:32;94818.06;;;5.99;66.55
6393;BME280;3229;42.674;23.282;2023-11-19T09:39:00;94809.97;;;5.94;67.17
6393;BME280;3229;42.674;23.282;2023-11-19T09:41:27;94794.91;;;6.03;66.37
6393;BME280;3229;42.674;23.282;2023-11-19T09:43:54;94796.16;;;5.98;67.04
6393;BME280;3229;42.674;23.282;2023-11-19T09:46:22;94792.91;;;5.96;67.65
6393;BME280;3229;42.674;23.282;2023-11-19T09:48:52;94778.50;;;5.96;67.69
6393;BME280;3229;42.674;23.282;2023-11-19T09:51:20;94756.34;;;5.98;67.31
6393;BME280;3229;42.674;23.282;2023-11-19T09:53:47;94761.94;;;6.15;67.02
6393;BME280;3229;42.674;23.282;2023-11-19T09:56:16;94756.06;;;6.14;66.93
6393;BME280;3229;42.674;23.282;2023-11-19T09:58:43;94764.69;;;6.12;67.38
6393;BME280;3229;42.674;23.282;2023-11-19T10:01:10;94763.91;;;6.11;66.89
6393;BME280;3229;42.674;23.282;2023-11-19T10:03:37;94770.97;;;6.19;67.27
6393;BME280;3229;42.674;23.282;2023-11-19T10:06:07;94760.97;;;6.28;67.07
6393;BME280;3229;42.674;23.282;2023-11-19T10:08:36;94764.44;;;6.39;66.58
6393;BME280;3229;42.674;23.282;2023-11-19T10:11:05;94759.63;;;6.47;66.66
6393;BME280;3229;42.674;23.282;2023-11-19T10:13:34;94753.66;;;6.59;66.73
6393;BME280;3229;42.674;23.282;2023-11-19T10:16:04;94762.25;;;6.69;65.22
6393;BME280;3229;42.674;23.282;2023-11-19T10:18:33;94733.09;;;6.51;64.99
6393;BME280;3229;42.674;23.282;2023-11-19T10:21:04;94772.19;;;6.84;64.43
6393;BME280;3229;42.674;23.282;2023-11-19T10:23:47;94791.72;;;6.94;64.28
6393;BME280;3229;42.674;23.282;2023-11-19T10:26:15;94767.03;;;6.96;63.29
6393;BME280;3229;42.674;23.282;2023-11-19T10:28:45;94762.50;;;6.89;63.82
6393;BME280;3229;42.674;23.282;2023-11-19T10:31:15;94757.97;;;6.81;63.89
6393;BME280;3229;42.674;23.282;2023-11-19T10:33:43;94696.38;;;6.44;64.28
6393;BME280;3229;42.674;23.282;2023-11-19T10:36:11;94737.97;;;6.65;64.44
6393;BME280;3229;42.674;23.282;2023-11-19T10:38:38;94733.47;;;6.69;64.47
6393;BME280;3229;42.674;23.282;2023-11-19T10:41:05;94748.75;;;6.80;64.02
6393;BME280;3229;42.674;23.282;2023-11-19T10:43:44;94765.00;;;6.77;63.93
6393;BME280;3229;42.674;23.282;2023-11-19T10:46:12;94749.09;;;6.75;63.93
6393;BME280;3229;42.674;23.282;2023-11-19T10:48:39;94742.34;;;6.63;64.63
6393;BME280;3229;42.674;23.282;2023-11-19T10:51:07;94754.50;;;6.71;65.17
6393;BME280;3229;42.674;23.282;2023-11-19T10:53:37;94759.13;;;6.77;65.43
6393;BME280;3229;42.674;23.282;2023-11-19T10:56:09;94746.56;;;6.87;64.46
6393;BME280;3229;42.674;23.282;2023-11-19T10:58:37;94748.28;;;6.86;64.73
6393;BME280;3229;42.674;23.282;2023-11-19T11:01:15;94750.25;;;6.94;63.88
6393;BME280;3229;42.674;23.282;2023-11-19T11:03:44;94739.97;;;6.84;64.42
6393;BME280;3229;42.674;23.282;2023-11-19T11:06:13;94722.53;;;6.79;64.43
6393;BME280;3229;42.674;23.282;2023-11-19T11:08:40;94716.72;;;6.77;63.99
6393;BME280;3229;42.674;23.282;2023-11-19T11:11:08;94713.97;;;6.69;64.57
6393;BME280;3229;42.674;23.282;2023-11-19T11:13:37;94701.91;;;6.60;64.64
6393;BME280;3229;42.674;23.282;2023-11-19T11:16:07;94698.81;;;6.57;64.15
6393;BME280;3229;42.674;23.282;2023-11-19T11:18:37;94696.38;;;6.55;64.59
6393;BME280;3229;42.674;23.282;2023-11-19T11:21:07;94700.78;;;6.53;64.85
6393;BME280;3229;42.674;23.282;2023-11-19T11:23:53;94698.91;;;6.55;64.50
6393;BME280;3229;42.674;23.282;2023-11-19T11:26:50;94699.72;;;6.56;64.05
6393;BME280;3229;42.674;23.282;2023-11-19T11:29:26;94702.59;;;6.51;64.06
6393;BME280;3229;42.674;23.282;2023-11-19T11:32:04;94703.19;;;6.43;64.07
6393;BME280;3229;42.674;23.282;2023-11-19T11:34:53;94699.13;;;6.41;63.74
6393;BME280;3229;42.674;23.282;2023-11-19T11:37:32;94685.91;;;6.24;64.47
6393;BME280;3229;42.674;23.282;2023-11-19T11:40:01;94688.38;;;6.37;64.40
6393;BME280;3229;42.674;23.282;2023-11-19T11:42:34;94688.16;;;6.51;64.09
6393;BME280;3229;42.674;23.282;2023-11-19T11:45:03;94676.50;;;6.60;64.31
6393;BME280;3229;42.674;23.282;2023-11-19T11:50:51;94665.09;;;6.88;63.48
6393;BME280;3229;42.674;23.282;2023-11-19T11:53:20;94668.47;;;7.00;62.90
6393;BME280;3229;42.674;23.282;2023-11-19T11:55:58;94640.97;;;6.83;63.67
6393;BME280;3229;42.674;23.282;2023-11-19T11:58:36;94680.91;;;7.14;63.44
6393;BME280;3229;42.674;23.282;2023-11-19T12:01:05;94684.72;;;7.20;63.31
6393;BME280;3229;42.674;23.282;2023-11-19T12:03:35;94684.38;;;7.24;63.25
6393;BME280;3229;42.674;23.282;2023-11-19T12:06:05;94686.31;;;7.43;61.98
6393;BME280;3229;42.674;23.282;2023-11-19T12:08:34;94680.16;;;7.57;60.66
6393;BME280;3229;42.674;23.282;2023-11-19T12:11:02;94666.28;;;7.50;61.93
6393;BME280;3229;42.674;23.282;2023-11-19T12:13:47;94639.91;;;7.51;62.20
6393;BME280;3229;42.674;23.282;2023-11-19T12:16:15;94654.78;;;7.67;60.07
6393;BME280;3229;42.674;23.282;2023-11-19T12:18:41;94654.75;;;7.78;60.17
6393;BME280;3229;42.674;23.282;2023-11-19T12:21:09;94649.41;;;7.81;59.94
6393;BME280;3229;42.674;23.282;2023-11-19T12:23:44;94644.88;;;7.85;60.23
6393;BME280;3229;42.674;23.282;2023-11-19T12:26:32;94640.34;;;7.88;58.75
6393;BME280;3229;42.674;23.282;2023-11-19T12:29:00;94641.66;;;7.83;59.19
6393;BME280;3229;42.674;23.282;2023-11-19T12:31:29;94641.16;;;7.89;58.63
6393;BME280;3229;42.674;23.282;2023-11-19T12:33:56;94637.81;;;7.88;58.74
6393;BME280;3229;42.674;23.282;2023-11-19T12:36:24;94636.19;;;7.87;59.16
6393;BME280;3229;42.674;23.282;2023-11-19T12:38:51;94634.31;;;7.89;59.43
6393;BME280;3229;42.674;23.282;2023-11-19T12:41:18;94624.56;;;7.94;59.33
6393;BME280;3229;42.674;23.282;2023-11-19T12:43:48;94632.34;;;7.93;59.82
6393;BME280;3229;42.674;23.282;2023-11-19T12:46:20;94621.50;;;7.91;60.46
6393;BME280;3229;42.674;23.282;2023-11-19T12:48:48;94618.81;;;7.92;60.14
6393;BME280;3229;42.674;23.282;2023-11-19T12:51:15;94617.94;;;7.82;60.65
6393;BME280;3229;42.674;23.282;2023-11-19T12:53:50;94619.00;;;7.79;60.76
6393;BME280;3229;42.674;23.282;2023-11-19T12:56:19;94620.22;;;7.85;60.67
6393;BME280;3229;42.674;23.282;2023-11-19T12:58:47;94615.50;;;7.80;60.88
6393;BME280;3229;42.674;23.282;2023-11-19T13:01:16;94616.56;;;7.78;61.61
6393;BME280;3229;42.674;23.282;2023-11-19T13:03:46;94606.97;;;7.82;62.08
6393;BME280;3229;42.674;23.282;2023-11-19T13:06:14;94606.59;;;7.86;62.29
6393;BME280;3229;42.674;23.282;2023-11-19T13:08:44;94603.47;;;7.83;62.55
6393;BME280;3229;42.674;23.282;2023-11-19T13:11:13;94529.66;;;7.29;62.86
6393;BME280;3229;42.674;23.282;2023-11-19T13:13:56;94592.34;;;7.84;62.57
6393;BME280;3229;42.674;23.282;2023-11-19T13:16:23;94605.22;;;7.82;62.62
6393;BME280;3229;42.674;23.282;2023-11-19T13:18:51;94598.63;;;7.79;62.80
6393;BME280;3229;42.674;23.282;2023-11-19T13:21:18;94597.31;;;7.85;62.37
6393;BME280;3229;42.674;23.282;2023-11-19T13:23:45;94595.34;;;7.89;62.44
6393;BME280;3229;42.674;23.282;2023-11-19T13:26:13;94585.53;;;7.84;62.50
6393;BME280;3229;42.674;23.282;2023-11-19T13:28:40;94574.16;;;7.88;61.19
6393;BME280;3229;42.674;23.282;2023-11-19T13:31:07;94574.97;;;7.89;59.88
6393;BME280;3229;42.674;23.282;2023-11-19T13:33:34;94589.88;;;7.93;59.65